Cannon Ball, North Dakota
Current Conditions -  °F | °C
As of 3:55 PM on Tuesday 21 Oct 2014 (Local Time) from K7L2 Reporting Station
Clear Clear  
Wind Chill: 82°   Ceiling: Unl
Heat Index: 82°   Visibility: 10mi
Dew Point: 41°   Wind: 30mph
Humidity: 23%   Direction: 180°S
Pressure: 29.69"   Gusts: 39mph
Location:  46.4°N, 100.6°W
Report Text: K7L2 212155Z AUTO 18026G34KT 10SM CLR 28/05 A2969 RMK AO2 PWINO PNO
Loading
Personal Weather Stations






























Interactive Weather Map New forecast layout! Learn more

10-Day Weather Forecast

Advertisements
Track Severe Weather on mobile